createdAt,value
2022-08-30T07:22:46.384Z,6.53
2022-08-30T07:27:53.446Z,4.60
2022-08-30T07:32:59.528Z,7.63
2022-08-30T07:38:04.549Z,8.63
2022-08-30T07:48:15.218Z,7.27
2022-08-30T07:53:21.557Z,4.28
2022-08-30T07:58:27.042Z,6.25
2022-08-30T08:03:33.009Z,6.60
2022-08-30T08:08:39.625Z,5.60
2022-08-30T08:13:53.036Z,10.50
2022-08-30T08:19:10.212Z,4.68
2022-08-30T08:24:16.601Z,4.82
2022-08-30T08:29:21.705Z,3.95
2022-08-30T08:39:34.446Z,8.13
2022-08-30T08:45:08.724Z,4.85
2022-08-30T08:50:21.460Z,7.78
2022-08-30T08:55:28.093Z,5.72
2022-08-30T09:00:34.612Z,7.45
2022-08-30T09:05:45.013Z,6.28
2022-08-30T09:11:05.680Z,8.23
2022-08-30T09:16:11.124Z,9.63
2022-08-30T09:21:30.405Z,6.63
2022-08-30T09:26:39.709Z,7.03
2022-08-30T09:32:22.493Z,5.80
2022-08-30T09:37:55.564Z,6.55
2022-08-30T09:43:21.613Z,7.72
2022-08-30T09:48:31.806Z,7.68
2022-08-30T09:54:16.592Z,12.30
2022-08-30T09:59:24.308Z,8.88
2022-08-30T10:04:41.731Z,9.35
2022-08-30T10:09:50.109Z,9.25
2022-08-30T10:15:16.845Z,8.32
2022-08-30T10:20:35.236Z,9.85
2022-08-30T10:25:53.328Z,9.13
2022-08-30T10:31:12.249Z,8.07
2022-08-30T10:36:19.150Z,10.25
2022-08-30T10:41:32.100Z,12.10
2022-08-30T10:46:52.639Z,15.30
2022-08-30T10:51:59.699Z,12.98
2022-08-30T10:57:06.401Z,17.00
2022-08-30T11:02:29.354Z,14.23
2022-08-30T11:07:53.203Z,17.20
2022-08-30T11:13:07.884Z,26.17
2022-08-30T11:18:14.677Z,18.83
2022-08-30T11:23:39.005Z,21.40
2022-08-30T11:28:47.720Z,22.60
2022-08-30T11:34:02.703Z,17.33
2022-08-30T11:44:23.902Z,23.92
2022-08-30T11:49:47.505Z,21.80
2022-08-30T11:55:29.853Z,18.47
2022-08-30T12:00:43.689Z,18.33
2022-08-30T12:06:00.243Z,24.05
2022-08-30T12:11:29.371Z,28.55
2022-08-30T12:17:05.149Z,27.40
2022-08-30T12:27:32.686Z,30.38
2022-08-30T12:32:47.293Z,26.98
2022-08-30T12:38:04.452Z,23.02
2022-08-30T12:43:26.575Z,27.45
2022-08-30T12:48:40.154Z,29.70
2022-08-30T12:53:51.328Z,30.40
2022-08-30T12:58:57.171Z,26.75
2022-08-30T13:04:22.853Z,37.35
2022-08-30T13:09:42.629Z,34.38
2022-08-30T13:14:48.502Z,41.22
2022-08-30T13:20:15.065Z,33.20
2022-08-30T13:25:22.142Z,23.77
2022-08-30T13:30:28.581Z,21.85
2022-08-30T13:35:35.149Z,22.65
2022-08-30T13:40:41.441Z,23.27
2022-08-30T13:45:47.474Z,18.27
2022-08-30T13:50:53.312Z,21.08
2022-08-30T13:55:58.737Z,16.60
2022-08-30T14:01:04.314Z,21.65
2022-08-30T14:06:29.725Z,21.02
2022-08-30T14:11:37.094Z,17.35
2022-08-30T14:16:46.473Z,19.23
2022-08-30T14:21:52.933Z,19.95
2022-08-30T14:26:58.209Z,17.08
2022-08-30T14:37:09.158Z,17.27
2022-08-30T14:42:18.747Z,13.35
2022-08-30T14:47:29.460Z,16.48
2022-08-30T14:52:35.981Z,17.10
2022-08-30T14:57:42.072Z,12.30
2022-08-30T15:02:47.642Z,14.35
2022-08-30T15:07:54.677Z,18.35
2022-08-30T15:13:00.419Z,16.65
2022-08-30T15:18:10.501Z,17.90
2022-08-30T15:23:17.199Z,12.82
2022-08-30T15:28:28.408Z,14.23
2022-08-30T15:33:33.704Z,7.57
2022-08-30T15:43:44.939Z,11.33
2022-08-30T15:48:53.492Z,15.60
2022-08-30T15:53:59.664Z,13.88
2022-08-30T15:59:05.307Z,28.73
2022-08-30T16:04:13.640Z,31.90
2022-08-30T16:09:19.146Z,41.90
2022-08-30T16:14:24.789Z,31.15
2022-08-30T16:19:30.714Z,30.38
2022-08-30T16:24:37.983Z,23.90
2022-08-30T16:29:43.108Z,21.80
2022-08-30T16:34:49.793Z,17.67
2022-08-30T16:39:55.780Z,14.35
2022-08-30T16:45:02.567Z,9.15
2022-08-30T16:50:18.321Z,11.25
2022-08-30T16:55:24.214Z,11.60
2022-08-30T17:00:29.571Z,17.35
2022-08-30T17:05:36.868Z,12.85
2022-08-30T17:10:43.835Z,11.50
2022-08-30T17:15:55.942Z,15.43
2022-08-30T17:21:02.108Z,11.75
2022-08-30T17:26:07.491Z,12.77
2022-08-30T17:31:14.920Z,12.98
2022-08-30T17:36:20.479Z,13.25
2022-08-30T17:41:26.538Z,11.10
2022-08-30T17:46:34.491Z,12.23
2022-08-30T17:51:43.489Z,9.25
2022-08-30T17:56:49.944Z,11.27
2022-08-30T18:01:58.125Z,9.85
2022-08-30T18:07:04.856Z,14.20
2022-08-30T18:12:11.881Z,12.45
2022-08-30T18:17:18.128Z,11.13
2022-08-30T18:22:24.216Z,13.75
2022-08-30T18:27:29.992Z,16.25
2022-08-30T18:32:36.294Z,11.25
2022-08-30T18:37:43.460Z,12.95
2022-08-30T18:47:53.993Z,13.27
2022-08-30T18:53:00.304Z,17.80
2022-08-30T18:58:07.024Z,13.68
2022-08-30T19:03:14.049Z,16.95
2022-08-30T19:08:19.537Z,16.70
2022-08-30T19:13:25.150Z,16.17
2022-08-30T19:18:30.479Z,14.55
2022-08-30T19:23:38.070Z,15.98
2022-08-30T19:28:44.181Z,14.90
2022-08-30T19:33:49.738Z,16.67
2022-08-30T19:38:55.424Z,13.70
2022-08-30T19:44:04.437Z,14.35
2022-08-30T19:49:11.918Z,16.83
2022-08-30T19:54:18.532Z,14.10
2022-08-30T19:59:24.390Z,16.00
2022-08-30T20:04:31.265Z,15.27
2022-08-30T20:09:37.246Z,16.35
2022-08-30T20:14:43.036Z,15.82
2022-08-30T20:24:54.583Z,24.65
2022-08-30T20:30:02.017Z,25.48
2022-08-30T20:35:11.766Z,23.73
2022-08-30T20:40:18.146Z,21.90
2022-08-30T20:45:23.799Z,22.58
2022-08-30T20:50:36.042Z,20.17
2022-08-30T20:55:49.647Z,25.92
2022-08-30T21:00:57.366Z,21.70
2022-08-30T21:06:03.206Z,22.27
2022-08-30T21:11:09.204Z,22.17
2022-08-30T21:16:14.446Z,19.25
2022-08-30T21:21:27.139Z,24.77
2022-08-30T21:26:33.587Z,18.38
2022-08-30T21:31:40.087Z,19.60
2022-08-30T21:36:48.637Z,27.73
2022-08-30T21:41:58.359Z,21.75
2022-08-30T21:47:03.632Z,25.42
2022-08-30T21:52:09.195Z,22.73
2022-08-30T21:57:15.320Z,25.73
2022-08-30T22:02:21.050Z,26.02
2022-08-30T22:07:26.084Z,20.65
2022-08-30T22:12:32.055Z,29.77
2022-08-30T22:17:37.367Z,34.85
2022-08-30T22:27:47.912Z,27.30
2022-08-30T22:32:53.389Z,30.60
2022-08-30T22:37:59.910Z,27.83
2022-08-30T22:43:05.922Z,23.20
2022-08-30T22:48:11.677Z,21.73
2022-08-30T22:53:17.292Z,27.50
2022-08-30T22:58:23.548Z,23.35
2022-08-30T23:03:29.220Z,38.08
2022-08-30T23:13:40.640Z,29.93
2022-08-30T23:18:48.258Z,26.88
2022-08-30T23:24:13.489Z,24.83
2022-08-30T23:29:37.420Z,34.97
2022-08-30T23:35:01.963Z,35.22
2022-08-30T23:40:27.058Z,29.52
2022-08-30T23:45:50.955Z,28.63
2022-08-30T23:51:21.891Z,30.48
2022-08-30T23:56:46.224Z,26.65
